createdAt,value
2023-07-17T00:02:04.520Z,99863.06
2023-07-17T00:04:59.936Z,99862.34
2023-07-17T00:07:55.824Z,99865.30
2023-07-17T00:10:45.829Z,99869.06
2023-07-17T00:13:33.980Z,99868.21
2023-07-17T00:16:22.343Z,99870.05
2023-07-17T00:19:15.004Z,99871.83
2023-07-17T00:22:04.713Z,99872.96
2023-07-17T00:24:54.083Z,99868.09
2023-07-17T00:27:41.820Z,99861.70
2023-07-17T00:30:29.483Z,99859.83
2023-07-17T00:33:22.780Z,99860.12
2023-07-17T00:36:11.027Z,99858.79
2023-07-17T00:38:59.226Z,99858.73
2023-07-17T00:41:50.540Z,99860.30
2023-07-17T00:44:39.677Z,99860.02
2023-07-17T00:47:31.185Z,99860.46
2023-07-17T00:50:23.039Z,99858.64
2023-07-17T00:53:11.508Z,99854.09
2023-07-17T00:56:02.051Z,99855.37
2023-07-17T00:59:02.780Z,99852.24
2023-07-17T01:01:58.222Z,99849.27
2023-07-17T01:04:48.488Z,99855.95
2023-07-17T01:07:38.961Z,99863.48
2023-07-17T01:10:27.494Z,99865.72
2023-07-17T01:13:15.237Z,99869.42
2023-07-17T01:16:05.845Z,99862.44
2023-07-17T01:18:54.814Z,99862.23
2023-07-17T01:21:59.260Z,99862.25
2023-07-17T01:24:49.364Z,99863.33
2023-07-17T01:27:37.180Z,99871.15
2023-07-17T01:30:25.575Z,99870.27
2023-07-17T01:33:13.192Z,99869.55
2023-07-17T01:36:03.417Z,99872.40
2023-07-17T01:38:51.614Z,99871.52
2023-07-17T01:41:39.891Z,99864.83
2023-07-17T01:44:29.497Z,99861.36
2023-07-17T01:47:17.956Z,99858.80
2023-07-17T01:50:07.412Z,99857.58
2023-07-17T01:52:55.569Z,99857.92
2023-07-17T01:55:48.666Z,99858.41
2023-07-17T01:58:37.368Z,99860.36
2023-07-17T02:01:25.417Z,99862.87
2023-07-17T02:04:14.469Z,99856.23
2023-07-17T02:07:02.330Z,99849.16
2023-07-17T02:09:50.199Z,99849.16
2023-07-17T02:12:43.150Z,99849.48
2023-07-17T02:15:31.118Z,99853.35
2023-07-17T02:18:19.118Z,99857.17
2023-07-17T02:21:07.092Z,99857.98
2023-07-17T02:23:55.038Z,99863.06
2023-07-17T02:26:42.595Z,99859.74
2023-07-17T02:29:30.935Z,99853.78
2023-07-17T02:32:19.187Z,99840.45
2023-07-17T02:35:07.867Z,99843.33
2023-07-17T02:37:56.766Z,99843.76
2023-07-17T02:40:44.546Z,99840.18
2023-07-17T02:43:32.616Z,99844.17
2023-07-17T02:46:20.351Z,99842.11
2023-07-17T02:49:13.192Z,99843.56
2023-07-17T02:52:01.464Z,99844.52
2023-07-17T02:54:49.293Z,99846.77
2023-07-17T02:57:38.185Z,99848.19
2023-07-17T03:00:26.721Z,99847.08
2023-07-17T03:03:15.263Z,99839.73
2023-07-17T03:06:05.552Z,99843.98
2023-07-17T03:08:53.556Z,99839.17
2023-07-17T03:11:41.668Z,99841.68
2023-07-17T03:14:30.635Z,99844.91
2023-07-17T03:17:18.404Z,99847.64
2023-07-17T03:20:10.639Z,99850.70
2023-07-17T03:22:58.732Z,99845.86
2023-07-17T03:25:46.693Z,99837.02
2023-07-17T03:28:36.346Z,99841.98
2023-07-17T03:31:24.238Z,99840.98
2023-07-17T03:34:12.947Z,99840.28
2023-07-17T03:37:04.264Z,99844.05
2023-07-17T03:39:52.418Z,99840.64
2023-07-17T03:42:40.202Z,99838.72
2023-07-17T03:45:33.466Z,99840.36
2023-07-17T03:48:22.054Z,99841.95
2023-07-17T03:51:10.529Z,99842.75
2023-07-17T03:53:58.739Z,99841.11
2023-07-17T03:56:47.315Z,99838.83
2023-07-17T03:59:56.785Z,99833.65
2023-07-17T04:02:48.884Z,99833.27
2023-07-17T04:05:43.415Z,99840.41
2023-07-17T04:08:31.814Z,99847.02
2023-07-17T04:11:20.982Z,99841.85
2023-07-17T04:14:12.709Z,99841.98
2023-07-17T04:17:05.294Z,99847.63
2023-07-17T04:20:07.798Z,99846.33
2023-07-17T04:23:01.668Z,99842.11
2023-07-17T04:25:54.348Z,99844.12
2023-07-17T04:28:43.693Z,99846.25
2023-07-17T04:31:35.252Z,99844.64
2023-07-17T04:34:23.877Z,99839.34
2023-07-17T04:37:11.911Z,99836.11
2023-07-17T04:40:00.859Z,99832.48
2023-07-17T04:42:54.743Z,99832.08
2023-07-17T04:45:45.948Z,99833.25
2023-07-17T04:48:38.902Z,99835.79
2023-07-17T04:51:27.171Z,99832.48
2023-07-17T04:54:15.429Z,99828.05
2023-07-17T04:57:08.092Z,99822.95
2023-07-17T04:59:56.200Z,99816.18
2023-07-17T05:02:45.998Z,99811.61
2023-07-17T05:05:34.543Z,99808.55
2023-07-17T05:08:27.639Z,99804.11
2023-07-17T05:11:16.444Z,99800.76
2023-07-17T05:14:07.524Z,99792.80
2023-07-17T05:16:57.304Z,99792.36
2023-07-17T05:19:45.700Z,99789.65
2023-07-17T05:22:35.283Z,99787.70
2023-07-17T05:25:26.780Z,99790.70
2023-07-17T05:28:15.801Z,99789.09
2023-07-17T05:31:05.849Z,99790.99
2023-07-17T05:33:59.748Z,99782.80
2023-07-17T05:36:49.297Z,99783.55
2023-07-17T05:39:37.146Z,99783.22
2023-07-17T05:42:25.319Z,99786.67
2023-07-17T05:45:13.843Z,99781.64
2023-07-17T05:48:02.049Z,99777.59
2023-07-17T05:50:50.462Z,99778.30
2023-07-17T05:53:38.856Z,99773.31
2023-07-17T05:56:27.562Z,99772.73
2023-07-17T05:59:16.621Z,99773.55
2023-07-17T06:02:09.373Z,99772.72
2023-07-17T06:05:02.254Z,99771.38
2023-07-17T06:07:50.403Z,99781.76
2023-07-17T06:10:39.296Z,99778.33
2023-07-17T06:13:27.355Z,99770.54
2023-07-17T06:16:15.161Z,99764.75
2023-07-17T06:19:05.549Z,99775.08
2023-07-17T06:21:55.763Z,99778.61
2023-07-17T06:24:47.020Z,99771.55
2023-07-17T06:27:38.151Z,99768.00
2023-07-17T06:30:29.021Z,99775.54
2023-07-17T06:33:16.860Z,99778.86
2023-07-17T06:36:05.441Z,99776.86
2023-07-17T06:38:53.813Z,99779.05
2023-07-17T06:41:41.834Z,99774.52
2023-07-17T06:44:31.147Z,99764.21
2023-07-17T06:47:36.701Z,99760.78
2023-07-17T06:50:31.262Z,99753.96
2023-07-17T06:53:22.419Z,99745.84
2023-07-17T06:56:13.110Z,99751.17
2023-07-17T06:59:02.663Z,99749.23
2023-07-17T07:01:50.673Z,99744.31
2023-07-17T07:04:38.349Z,99738.16
2023-07-17T07:07:28.344Z,99740.70
2023-07-17T07:10:16.496Z,99740.80
2023-07-17T07:13:04.494Z,99738.77
2023-07-17T07:15:53.135Z,99734.73
2023-07-17T07:18:46.338Z,99729.31
2023-07-17T07:21:39.206Z,99727.30
2023-07-17T07:24:29.643Z,99723.90
2023-07-17T07:27:21.018Z,99722.93
2023-07-17T07:30:10.229Z,99717.05
2023-07-17T07:33:01.919Z,99715.64
2023-07-17T07:35:51.797Z,99712.30
2023-07-17T07:38:40.221Z,99707.34
2023-07-17T07:41:32.227Z,99703.92
2023-07-17T07:44:21.531Z,99704.80
2023-07-17T07:47:09.551Z,99704.54
2023-07-17T07:49:58.055Z,99704.45
2023-07-17T07:52:46.263Z,99702.52
2023-07-17T07:55:34.415Z,99697.00
2023-07-17T07:58:22.765Z,99697.18
2023-07-17T08:01:11.386Z,99698.52
2023-07-17T08:04:01.217Z,99694.38
2023-07-17T08:06:51.050Z,99688.33
2023-07-17T08:09:41.008Z,99691.77
2023-07-17T08:12:34.202Z,99692.04
2023-07-17T08:15:26.500Z,99686.67
2023-07-17T08:18:22.555Z,99684.49
2023-07-17T08:21:11.408Z,99678.84
2023-07-17T08:24:02.515Z,99683.64
2023-07-17T08:27:03.773Z,99682.29
2023-07-17T08:29:55.108Z,99676.23
2023-07-17T08:32:48.929Z,99682.36
2023-07-17T08:35:39.956Z,99677.75
2023-07-17T08:38:31.084Z,99667.66
2023-07-17T08:41:23.720Z,99666.35
2023-07-17T08:44:16.357Z,99662.63
2023-07-17T08:47:09.756Z,99661.94
2023-07-17T08:50:05.631Z,99661.36
2023-07-17T08:52:59.528Z,99660.57
2023-07-17T08:55:57.334Z,99652.91
2023-07-17T08:58:53.842Z,99657.02
2023-07-17T09:01:43.548Z,99649.54
2023-07-17T09:04:37.792Z,99650.90
2023-07-17T09:07:28.901Z,99650.07
2023-07-17T09:10:22.473Z,99653.76
2023-07-17T09:13:11.316Z,99650.66
2023-07-17T09:16:21.728Z,99643.84
2023-07-17T09:19:09.861Z,99645.69
2023-07-17T09:22:05.934Z,99650.25
2023-07-17T09:24:53.864Z,99651.28
2023-07-17T09:27:55.099Z,99645.72
2023-07-17T09:30:43.258Z,99651.70
2023-07-17T09:33:37.313Z,99658.42
2023-07-17T09:36:25.771Z,99660.03
2023-07-17T09:39:15.303Z,99660.67
2023-07-17T09:42:03.185Z,99660.60
2023-07-17T09:44:53.773Z,99655.29
2023-07-17T09:47:42.362Z,99654.83
2023-07-17T09:50:31.732Z,99655.04
2023-07-17T09:53:21.724Z,99651.70
2023-07-17T09:56:15.202Z,99640.89
2023-07-17T09:59:15.532Z,99646.95
2023-07-17T10:02:12.017Z,99641.21
2023-07-17T10:05:02.849Z,99641.30
2023-07-17T10:07:54.407Z,99642.02
2023-07-17T10:10:43.312Z,99636.93
2023-07-17T10:13:31.537Z,99630.20
2023-07-17T10:16:20.538Z,99633.82
2023-07-17T10:19:09.718Z,99631.67
2023-07-17T10:22:00.225Z,99627.53
2023-07-17T10:24:49.391Z,99627.23
2023-07-17T10:27:45.423Z,99639.66
2023-07-17T10:30:39.114Z,99641.23
2023-07-17T10:33:36.681Z,99640.27
2023-07-17T10:36:44.263Z,99637.27
2023-07-17T10:39:32.419Z,99642.69
2023-07-17T10:42:21.700Z,99640.95
2023-07-17T10:45:12.580Z,99635.69
2023-07-17T10:48:01.445Z,99638.90
2023-07-17T10:50:56.017Z,99641.71
2023-07-17T10:53:48.749Z,99645.04
2023-07-17T10:56:49.650Z,99645.90
2023-07-17T10:59:38.706Z,99655.56
2023-07-17T11:02:28.025Z,99666.02
2023-07-17T11:05:16.711Z,99663.58
2023-07-17T11:08:09.604Z,99665.76
2023-07-17T11:11:00.501Z,99662.95
2023-07-17T11:13:52.851Z,99657.13
2023-07-17T11:16:43.681Z,99660.86
2023-07-17T11:19:35.401Z,99657.29
2023-07-17T11:22:31.173Z,99660.85
2023-07-17T11:25:25.737Z,99665.16
2023-07-17T11:28:15.679Z,99648.44
2023-07-17T11:31:04.611Z,99650.77
2023-07-17T11:34:06.559Z,99652.88
2023-07-17T11:36:55.846Z,99646.22
2023-07-17T11:39:43.318Z,99646.92
2023-07-17T11:42:51.997Z,99647.19
2023-07-17T11:45:41.627Z,99649.72
2023-07-17T11:48:42.491Z,99662.77
2023-07-17T11:51:30.210Z,99658.65
2023-07-17T11:54:18.289Z,99657.71
2023-07-17T11:57:06.641Z,99670.58
2023-07-17T12:00:06.188Z,99666.25
2023-07-17T12:03:01.829Z,99666.73
2023-07-17T12:05:49.898Z,99673.46
2023-07-17T12:08:38.953Z,99670.52
2023-07-17T12:11:27.546Z,99667.39
2023-07-17T12:14:16.924Z,99667.11
2023-07-17T12:17:05.434Z,99674.00
2023-07-17T12:19:53.314Z,99675.26
2023-07-17T12:22:43.709Z,99677.83
2023-07-17T12:25:32.326Z,99683.90
2023-07-17T12:28:21.944Z,99685.80
2023-07-17T12:31:11.106Z,99676.04
2023-07-17T12:33:59.343Z,99675.55
2023-07-17T12:36:49.404Z,99680.87
2023-07-17T12:39:37.249Z,99687.14
2023-07-17T12:42:26.614Z,99685.11
2023-07-17T12:45:16.042Z,99687.49
2023-07-17T12:48:08.788Z,99689.23
2023-07-17T12:50:59.105Z,99689.11
2023-07-17T12:53:49.843Z,99686.73
2023-07-17T12:56:37.956Z,99692.99
2023-07-17T12:59:26.244Z,99694.40
2023-07-17T13:02:14.849Z,99690.60
2023-07-17T13:05:03.842Z,99695.70
2023-07-17T13:07:52.583Z,99687.71
2023-07-17T13:10:41.328Z,99687.21
2023-07-17T13:13:29.096Z,99695.06
2023-07-17T13:16:18.108Z,99703.13
2023-07-17T13:19:06.358Z,99706.70
2023-07-17T13:21:55.654Z,99714.09
2023-07-17T13:24:44.028Z,99720.21
2023-07-17T13:27:32.424Z,99736.57
2023-07-17T13:30:20.502Z,99755.75
2023-07-17T13:33:09.347Z,99781.98
2023-07-17T13:35:59.289Z,99814.77
2023-07-17T13:38:47.335Z,99825.86
2023-07-17T13:41:49.317Z,99794.67
2023-07-17T13:44:37.206Z,99761.44
2023-07-17T13:47:25.675Z,99757.48
2023-07-17T13:50:14.168Z,99755.16
2023-07-17T13:53:04.718Z,99755.48
2023-07-17T13:55:52.594Z,99763.65
2023-07-17T13:58:43.902Z,99764.90
2023-07-17T14:01:31.960Z,99775.14
2023-07-17T14:04:19.975Z,99764.52
2023-07-17T14:07:10.905Z,99767.61
2023-07-17T14:10:02.081Z,99771.08
2023-07-17T14:12:50.393Z,99760.71
2023-07-17T14:15:38.905Z,99750.84
2023-07-17T14:18:32.845Z,99742.50
2023-07-17T14:21:23.027Z,99731.27
2023-07-17T14:24:13.464Z,99732.17
2023-07-17T14:27:01.562Z,99730.19
2023-07-17T14:29:56.764Z,99736.98
2023-07-17T14:32:45.826Z,99736.44
2023-07-17T14:35:50.607Z,99733.38
2023-07-17T14:38:40.179Z,99738.27
2023-07-17T14:41:31.313Z,99738.95
2023-07-17T14:44:21.704Z,99740.36
2023-07-17T14:47:09.750Z,99741.05
2023-07-17T14:49:59.056Z,99738.23
2023-07-17T14:52:47.889Z,99738.50
2023-07-17T14:55:41.971Z,99736.67
2023-07-17T14:58:31.124Z,99738.48
2023-07-17T15:01:20.122Z,99728.83
2023-07-17T15:04:09.134Z,99723.34
2023-07-17T15:07:24.429Z,99726.15
2023-07-17T15:10:21.596Z,99728.20
2023-07-17T15:13:10.138Z,99728.52
2023-07-17T15:15:58.789Z,99724.98
2023-07-17T15:18:47.007Z,99726.27
2023-07-17T15:21:36.005Z,99725.88
2023-07-17T15:24:25.459Z,99720.86
2023-07-17T15:27:15.650Z,99723.12
2023-07-17T15:30:07.743Z,99720.61
2023-07-17T15:33:00.799Z,99720.23
2023-07-17T15:35:49.826Z,99721.23
2023-07-17T15:38:40.533Z,99723.29
2023-07-17T15:41:32.975Z,99721.63
2023-07-17T15:44:23.092Z,99723.48
2023-07-17T15:47:13.830Z,99720.89
2023-07-17T15:50:05.566Z,99724.92
2023-07-17T15:52:53.781Z,99730.20
2023-07-17T15:55:42.270Z,99726.69
2023-07-17T15:58:36.170Z,99734.81
2023-07-17T16:01:35.116Z,99730.52
2023-07-17T16:04:25.275Z,99732.39
2023-07-17T16:07:17.357Z,99732.30
2023-07-17T16:10:14.932Z,99727.84
2023-07-17T16:13:09.665Z,99724.13
2023-07-17T16:15:57.732Z,99724.29
2023-07-17T16:18:45.621Z,99724.50
2023-07-17T16:21:33.678Z,99724.97
2023-07-17T16:24:28.971Z,99727.44
2023-07-17T16:27:17.236Z,99736.67
2023-07-17T16:30:08.096Z,99739.70
2023-07-17T16:32:55.938Z,99739.45
2023-07-17T16:35:48.090Z,99744.09
2023-07-17T16:38:36.530Z,99741.70
2023-07-17T16:44:21.364Z,99745.63
2023-07-17T16:47:12.516Z,99748.89
2023-07-17T16:49:59.365Z,99751.89
2023-07-17T16:52:46.612Z,99750.49
2023-07-17T16:55:34.118Z,99756.14
2023-07-17T16:58:23.010Z,99761.27
2023-07-17T17:01:10.218Z,99767.52
2023-07-17T17:03:58.257Z,99768.55
2023-07-17T17:06:46.266Z,99778.44
2023-07-17T17:09:33.360Z,99781.70
2023-07-17T17:12:22.493Z,99794.84
2023-07-17T17:15:10.478Z,99805.19
2023-07-17T17:18:00.968Z,99833.88
2023-07-17T17:20:50.803Z,99824.11
2023-07-17T17:23:37.860Z,99803.76
2023-07-17T17:26:25.425Z,99796.80
2023-07-17T17:29:13.894Z,99789.09
2023-07-17T17:32:01.470Z,99778.04
2023-07-17T17:34:48.701Z,99750.89
2023-07-17T17:37:37.568Z,99718.69
2023-07-17T17:40:24.901Z,99699.63
2023-07-17T17:43:12.407Z,99702.38
2023-07-17T17:46:02.524Z,99707.98
2023-07-17T17:48:51.890Z,99708.08
2023-07-17T17:51:39.554Z,99704.77
2023-07-17T17:54:31.481Z,99688.21
2023-07-17T17:57:19.097Z,99699.98
2023-07-17T18:00:12.760Z,99713.66
2023-07-17T18:03:10.623Z,99720.84
2023-07-17T18:05:57.781Z,99735.34
2023-07-17T18:08:44.462Z,99753.44
2023-07-17T18:11:34.285Z,99770.79
2023-07-17T18:14:22.881Z,99789.90
2023-07-17T18:17:12.485Z,99793.83
2023-07-17T18:26:37.036Z,99801.33
2023-07-17T18:29:25.377Z,99797.13
2023-07-17T18:32:12.393Z,99789.09
2023-07-17T18:35:00.115Z,99791.33
2023-07-17T18:37:46.701Z,99793.96
2023-07-17T18:40:35.673Z,99796.81
2023-07-17T18:43:22.442Z,99795.73
2023-07-17T18:46:09.937Z,99798.55
2023-07-17T18:49:04.064Z,99795.29
2023-07-17T18:51:56.853Z,99792.19
2023-07-17T18:54:43.544Z,99789.94
2023-07-17T18:57:31.651Z,99787.92
2023-07-17T19:00:23.362Z,99789.39
2023-07-17T19:03:10.843Z,99794.23
2023-07-17T19:06:00.329Z,99793.09
2023-07-17T19:08:48.665Z,99793.45
2023-07-17T19:11:35.489Z,99793.14
2023-07-17T19:14:22.053Z,99791.34
2023-07-17T19:17:08.953Z,99793.02
2023-07-17T19:19:55.500Z,99792.20
2023-07-17T19:22:42.455Z,99790.73
2023-07-17T19:25:36.873Z,99795.87
2023-07-17T19:28:25.190Z,99799.48
2023-07-17T19:31:13.473Z,99802.43
2023-07-17T19:34:00.397Z,99797.51
2023-07-17T19:36:47.237Z,99793.59
2023-07-17T19:39:34.391Z,99792.44
2023-07-17T19:42:20.783Z,99799.92
2023-07-17T19:45:20.449Z,99804.63
2023-07-17T19:48:12.036Z,99810.35
2023-07-17T19:51:02.518Z,99812.60
2023-07-17T19:53:50.798Z,99816.55
2023-07-17T19:56:40.392Z,99815.57
2023-07-17T19:59:31.416Z,99816.08
2023-07-17T20:02:18.521Z,99813.08
2023-07-17T20:05:07.589Z,99818.11
2023-07-17T20:07:55.174Z,99809.30
2023-07-17T20:10:42.366Z,99810.66
2023-07-17T20:13:35.283Z,99806.55
2023-07-17T20:16:22.546Z,99802.95
2023-07-17T20:19:10.203Z,99800.35
2023-07-17T20:22:00.283Z,99797.73
2023-07-17T20:24:48.991Z,99800.45
2023-07-17T20:27:40.468Z,99800.29
2023-07-17T20:30:34.143Z,99801.95
2023-07-17T20:33:22.282Z,99796.16
2023-07-17T20:36:39.699Z,99792.02
2023-07-17T20:39:39.095Z,99787.73
2023-07-17T20:42:44.833Z,99784.29
2023-07-17T20:45:55.508Z,99773.30
2023-07-17T20:48:43.424Z,99766.77
2023-07-17T20:51:35.604Z,99769.08
2023-07-17T20:54:27.493Z,99764.73
2023-07-17T20:57:16.177Z,99763.02
2023-07-17T21:00:11.028Z,99770.94
2023-07-17T21:02:57.795Z,99761.48
2023-07-17T21:05:44.682Z,99763.56
2023-07-17T21:08:32.073Z,99764.67
2023-07-17T21:11:18.560Z,99756.11
2023-07-17T21:14:08.522Z,99752.38
2023-07-17T21:16:55.110Z,99754.70
2023-07-17T21:19:50.976Z,99757.64
2023-07-17T21:22:40.764Z,99758.48
2023-07-17T21:25:28.426Z,99761.95
2023-07-17T21:28:17.599Z,99765.88
2023-07-17T21:31:04.568Z,99768.11
2023-07-17T21:33:51.109Z,99771.15
2023-07-17T21:36:37.521Z,99769.77
2023-07-17T21:39:24.857Z,99769.30
2023-07-17T21:42:13.885Z,99764.69
2023-07-17T21:45:20.450Z,99776.50
2023-07-17T21:48:15.206Z,99782.06
2023-07-17T21:51:06.944Z,99786.02
2023-07-17T21:53:55.216Z,99788.06
2023-07-17T21:56:42.271Z,99787.81
2023-07-17T21:59:28.962Z,99788.88
2023-07-17T22:02:16.960Z,99794.96
2023-07-17T22:05:04.534Z,99793.58
2023-07-17T22:07:51.266Z,99795.60
2023-07-17T22:10:38.266Z,99801.10
2023-07-17T22:13:26.100Z,99797.04
2023-07-17T22:16:20.599Z,99810.28
2023-07-17T22:19:14.398Z,99815.77
2023-07-17T22:22:01.337Z,99826.52
2023-07-17T22:24:50.328Z,99831.52
2023-07-17T22:27:37.823Z,99837.19
2023-07-17T22:30:37.566Z,99830.30
2023-07-17T22:33:24.371Z,99834.36
2023-07-17T22:36:11.011Z,99826.38
2023-07-17T22:39:03.559Z,99832.76
2023-07-17T22:41:50.719Z,99825.02
2023-07-17T22:44:37.492Z,99824.46
2023-07-17T22:47:24.670Z,99815.39
2023-07-17T22:50:11.557Z,99792.32
2023-07-17T22:52:59.861Z,99799.91
2023-07-17T22:55:47.262Z,99800.89
2023-07-17T22:58:37.330Z,99800.95
2023-07-17T23:01:25.510Z,99798.01
2023-07-17T23:04:14.685Z,99799.17
2023-07-17T23:07:04.964Z,99798.67
2023-07-17T23:09:53.597Z,99800.57
2023-07-17T23:12:44.015Z,99799.61
2023-07-17T23:15:30.794Z,99795.83
2023-07-17T23:18:20.352Z,99795.23
2023-07-17T23:21:11.104Z,99801.21
2023-07-17T23:24:01.145Z,99806.66
2023-07-17T23:26:48.146Z,99812.16
2023-07-17T23:29:37.120Z,99809.48
2023-07-17T23:32:27.092Z,99809.12
2023-07-17T23:35:15.919Z,99807.71
2023-07-17T23:38:03.159Z,99808.86
2023-07-17T23:40:49.614Z,99797.77
2023-07-17T23:43:37.560Z,99793.80
2023-07-17T23:46:25.125Z,99791.77
2023-07-17T23:49:11.687Z,99783.23
2023-07-17T23:51:59.257Z,99772.96
2023-07-17T23:54:47.687Z,99763.92
2023-07-17T23:57:34.386Z,99765.09
